Time;durP1;ratioP1;P1;durP2;ratioP2;P2;SDS_P1;SDS_P2;PMS_P1;PMS_P2;Temp;Humidity;BMP_temperature;BMP_pressure;BME280_temperature;BME280_humidity;BME280_pressure;Samples;Min_cycle;Max_cycle;Signal;HPM_P1;HPM_P2
2022/02/23 00:01:31;;;;;;;4.37;1.13;;;9.30;99.90;;;;;;4979905;28;20952;-86
2022/02/23 00:03:58;;;;;;;1.53;0.70;;;9.30;99.90;;;;;;4978344;28;21020;-87
2022/02/23 00:06:25;;;;;;;2.37;0.97;;;9.30;99.90;;;;;;4970896;28;20454;-87
2022/02/23 00:08:52;;;;;;;3.60;2.50;;;9.30;99.90;;;;;;4977669;28;20452;-85
2022/02/23 00:11:19;;;;;;;2.13;0.97;;;9.30;99.90;;;;;;4967510;28;20467;-85
2022/02/23 00:13:45;;;;;;;3.03;0.90;;;9.30;99.90;;;;;;4971302;28;20492;-86
2022/02/23 00:16:12;;;;;;;1.73;0.87;;;9.40;99.90;;;;;;4969569;28;21957;-87
2022/02/23 00:18:40;;;;;;;2.60;1.17;;;9.30;99.90;;;;;;4971111;28;20815;-87
2022/02/23 00:21:07;;;;;;;2.20;1.03;;;9.30;99.90;;;;;;4969580;28;20451;-87
2022/02/23 00:23:34;;;;;;;2.00;1.13;;;9.30;99.90;;;;;;4970102;28;20461;-86
2022/02/23 00:26:00;;;;;;;1.23;0.80;;;9.40;99.90;;;;;;4969790;28;20459;-87
2022/02/23 00:28:27;;;;;;;2.37;0.90;;;9.40;99.90;;;;;;4971204;28;20451;-87
2022/02/23 00:30:54;;;;;;;2.93;1.10;;;9.40;99.90;;;;;;4972897;28;20471;-86
2022/02/23 00:33:20;;;;;;;2.23;0.90;;;9.40;99.90;;;;;;4971284;28;20484;-87
2022/02/23 00:35:48;;;;;;;2.40;0.70;;;9.40;99.90;;;;;;4987603;28;20447;-86
2022/02/23 00:38:15;;;;;;;1.70;0.93;;;9.40;99.90;;;;;;4977237;28;20514;-86
2022/02/23 00:40:42;;;;;;;1.60;1.00;;;9.40;99.90;;;;;;4964690;28;20456;-87
2022/02/23 00:43:09;;;;;;;2.73;1.40;;;9.40;99.90;;;;;;4968485;28;20526;-87
2022/02/23 00:45:36;;;;;;;2.63;0.90;;;9.40;99.90;;;;;;4970317;28;20448;-87
2022/02/23 00:48:03;;;;;;;1.50;0.93;;;9.40;99.90;;;;;;4964388;28;20868;-87
2022/02/23 00:50:30;;;;;;;1.70;0.70;;;9.40;99.90;;;;;;4968744;28;20445;-86
2022/02/23 00:52:58;;;;;;;2.30;0.90;;;9.40;99.90;;;;;;4969795;28;20485;-87
2022/02/23 00:55:24;;;;;;;2.10;0.93;;;9.40;99.90;;;;;;4967925;28;20449;-87
2022/02/23 00:57:51;;;;;;;1.57;1.17;;;9.40;99.90;;;;;;4966682;28;20464;-87
2022/02/23 01:00:18;;;;;;;2.60;1.00;;;9.40;99.90;;;;;;4968883;28;20452;-87
2022/02/23 01:02:45;;;;;;;2.20;0.73;;;9.50;99.90;;;;;;4968241;28;20472;-87
2022/02/23 01:05:12;;;;;;;0.83;0.70;;;9.50;99.90;;;;;;4969090;28;20449;-87
2022/02/23 01:07:38;;;;;;;3.67;1.47;;;9.40;99.90;;;;;;4964460;28;20459;-87
2022/02/23 01:10:09;;;;;;;2.03;0.80;;;9.40;99.90;;;;;;4969547;28;20451;-87
2022/02/23 01:12:37;;;;;;;1.63;0.90;;;9.40;99.90;;;;;;4969987;28;20480;-87
2022/02/23 01:15:06;;;;;;;1.80;1.30;;;9.40;99.90;;;;;;4969719;28;20456;-88
2022/02/23 01:17:32;;;;;;;2.93;0.93;;;9.40;99.90;;;;;;4969171;28;20449;-87
2022/02/23 01:19:59;;;;;;;1.83;0.90;;;9.40;99.90;;;;;;4966669;28;20802;-88
2022/02/23 01:22:26;;;;;;;1.90;1.10;;;9.30;99.90;;;;;;4975414;28;20466;-87
2022/02/23 01:24:53;;;;;;;3.23;1.10;;;9.30;99.90;;;;;;4967127;28;20456;-88
2022/02/23 01:27:21;;;;;;;3.73;1.50;;;9.30;99.90;;;;;;4967665;28;20440;-87
2022/02/23 01:29:48;;;;;;;1.80;0.97;;;9.30;99.90;;;;;;4977348;28;20433;-87
2022/02/23 01:32:15;;;;;;;1.50;1.30;;;9.40;99.90;;;;;;4981982;28;20583;-87
2022/02/23 01:34:41;;;;;;;2.10;0.70;;;9.30;99.90;;;;;;4967827;28;20866;-88
2022/02/23 01:37:08;;;;;;;1.63;1.00;;;9.40;99.90;;;;;;4965871;28;20453;-88
2022/02/23 01:39:35;;;;;;;2.23;0.87;;;9.30;99.90;;;;;;4966548;28;20463;-87
2022/02/23 01:42:02;;;;;;;1.50;1.03;;;9.20;99.90;;;;;;4964874;28;20452;-87
2022/02/23 01:44:30;;;;;;;2.40;1.13;;;9.20;99.90;;;;;;4965219;28;20460;-87
2022/02/23 01:46:57;;;;;;;4.20;1.50;;;9.10;99.90;;;;;;4966253;28;20822;-87
2022/02/23 01:49:24;;;;;;;1.50;1.10;;;9.00;99.90;;;;;;4964006;28;20454;-87
2022/02/23 01:51:52;;;;;;;4.37;1.07;;;8.80;99.90;;;;;;4968198;28;20441;-87
2022/02/23 01:54:20;;;;;;;7.03;1.40;;;8.50;99.90;;;;;;4979063;28;20469;-88
2022/02/23 01:56:47;;;;;;;3.63;1.40;;;8.20;99.90;;;;;;4972702;28;20456;-87
2022/02/23 01:59:14;;;;;;;2.43;1.77;;;7.90;99.90;;;;;;4971088;28;20437;-88
2022/02/23 02:01:42;;;;;;;3.63;1.53;;;7.70;99.90;;;;;;4986199;28;20436;-88
2022/02/23 02:04:08;;;;;;;5.40;1.67;;;7.60;99.90;;;;;;4981718;28;20474;-88
2022/02/23 02:06:35;;;;;;;6.60;2.23;;;7.40;99.90;;;;;;4995204;28;20471;-87
2022/02/23 02:09:02;;;;;;;3.67;1.50;;;7.30;99.90;;;;;;4971839;28;20459;-87
2022/02/23 02:11:29;;;;;;;7.80;1.53;;;7.30;99.90;;;;;;4969461;28;20456;-87
2022/02/23 02:13:55;;;;;;;5.90;1.43;;;7.20;99.90;;;;;;4971351;28;20491;-85
2022/02/23 02:16:22;;;;;;;4.13;0.90;;;7.10;99.90;;;;;;4970824;28;20449;-85
2022/02/23 02:18:50;;;;;;;3.97;1.20;;;7.10;99.90;;;;;;4971321;28;20467;-88
2022/02/23 02:21:17;;;;;;;6.83;2.10;;;7.10;99.90;;;;;;4970061;28;20461;-88
2022/02/23 02:23:45;;;;;;;2.70;1.13;;;7.10;99.90;;;;;;4966295;28;20473;-88
2022/02/23 02:26:11;;;;;;;8.47;1.70;;;7.10;99.90;;;;;;4966811;28;20453;-87
2022/02/23 02:28:38;;;;;;;4.30;1.50;;;7.00;99.90;;;;;;4968044;28;20447;-88
2022/02/23 02:31:05;;;;;;;6.00;1.63;;;7.00;99.90;;;;;;4968220;28;20440;-86
2022/02/23 02:33:32;;;;;;;6.90;1.20;;;7.00;99.90;;;;;;4966593;28;20487;-87
2022/02/23 02:35:58;;;;;;;7.37;2.03;;;7.00;99.90;;;;;;4968695;28;20460;-86
2022/02/23 02:38:25;;;;;;;5.50;1.50;;;7.00;99.90;;;;;;4968163;28;20448;-86
2022/02/23 02:40:53;;;;;;;3.20;1.20;;;6.90;99.90;;;;;;4965770;28;20464;-88
2022/02/23 02:43:20;;;;;;;6.23;1.40;;;7.00;99.90;;;;;;4964144;28;20471;-86
2022/02/23 02:45:47;;;;;;;4.03;1.47;;;6.90;99.90;;;;;;4966496;28;20816;-86
2022/02/23 02:48:13;;;;;;;3.97;2.40;;;6.90;99.90;;;;;;4967164;28;20449;-86
2022/02/23 02:50:40;;;;;;;6.03;1.70;;;6.90;99.90;;;;;;4967069;28;20460;-86
2022/02/23 02:53:07;;;;;;;4.90;1.50;;;6.90;99.90;;;;;;4966077;28;20480;-87
2022/02/23 02:55:33;;;;;;;3.70;1.10;;;6.90;99.90;;;;;;4957171;28;20455;-86
2022/02/23 02:58:01;;;;;;;5.80;1.40;;;6.80;99.90;;;;;;4966821;28;20939;-86
2022/02/23 03:00:28;;;;;;;4.23;1.40;;;6.90;99.90;;;;;;4965803;28;20523;-86
2022/02/23 03:02:55;;;;;;;3.87;1.47;;;7.00;99.90;;;;;;4968653;28;20514;-86
2022/02/23 03:05:22;;;;;;;6.80;1.90;;;6.90;99.90;;;;;;4968194;28;21173;-87
2022/02/23 03:07:49;;;;;;;6.07;1.60;;;6.90;99.90;;;;;;4966141;28;20969;-86
2022/02/23 03:10:15;;;;;;;4.90;1.20;;;6.90;99.90;;;;;;4969149;28;20449;-87
2022/02/23 03:12:42;;;;;;;7.07;1.40;;;6.90;99.90;;;;;;4978099;28;21281;-87
2022/02/23 03:15:10;;;;;;;5.43;1.30;;;6.90;99.90;;;;;;4971359;28;20854;-87
2022/02/23 03:17:37;;;;;;;5.90;1.40;;;6.90;99.90;;;;;;4972836;28;20448;-87
2022/02/23 03:20:05;;;;;;;2.63;1.77;;;7.00;99.90;;;;;;4973466;28;20456;-86
2022/02/23 03:22:32;;;;;;;5.77;1.63;;;7.00;99.90;;;;;;4960465;28;20456;-87
2022/02/23 03:24:58;;;;;;;4.37;1.33;;;7.00;99.90;;;;;;4984446;28;20447;-86
2022/02/23 03:27:25;;;;;;;9.20;2.63;;;6.90;99.90;;;;;;4971456;28;20468;-87
2022/02/23 03:29:52;;;;;;;6.87;1.30;;;6.80;99.90;;;;;;4970732;28;20489;-86
2022/02/23 03:32:20;;;;;;;3.43;1.67;;;6.90;99.90;;;;;;4981839;28;20474;-87
2022/02/23 03:34:47;;;;;;;10.23;1.87;;;6.80;99.90;;;;;;4962919;28;21067;-86
2022/02/23 03:37:13;;;;;;;3.33;1.40;;;6.90;99.90;;;;;;4971243;28;20827;-87
2022/02/23 03:39:40;;;;;;;3.43;1.40;;;6.90;99.90;;;;;;4961915;28;20445;-86
2022/02/23 03:42:07;;;;;;;8.03;2.17;;;6.90;99.90;;;;;;4974862;28;20447;-89
2022/02/23 03:44:34;;;;;;;6.20;1.73;;;6.80;99.90;;;;;;4968539;28;20453;-87
2022/02/23 03:47:01;;;;;;;7.40;1.83;;;6.70;99.90;;;;;;4979227;28;20445;-86
2022/02/23 03:49:29;;;;;;;8.63;2.00;;;6.60;99.90;;;;;;4976198;28;20466;-87
2022/02/23 03:51:56;;;;;;;11.80;2.77;;;6.50;99.90;;;;;;4980429;28;20452;-86
2022/02/23 03:54:22;;;;;;;3.67;2.10;;;6.50;99.90;;;;;;4966990;28;20514;-86
2022/02/23 03:56:49;;;;;;;3.90;1.50;;;6.40;99.90;;;;;;4972848;28;20452;-86
2022/02/23 03:59:16;;;;;;;9.17;2.90;;;6.40;99.90;;;;;;4974997;28;20443;-86
2022/02/23 04:01:46;;;;;;;11.43;3.33;;;6.40;99.90;;;;;;4975475;28;20457;-86
2022/02/23 04:04:14;;;;;;;3.30;2.30;;;6.40;99.90;;;;;;4977604;28;20472;-87
2022/02/23 04:06:42;;;;;;;8.50;2.13;;;6.40;99.90;;;;;;4971404;28;20886;-86
2022/02/23 04:09:10;;;;;;;5.20;2.53;;;6.50;99.90;;;;;;4970578;28;20452;-87
2022/02/23 04:11:37;;;;;;;8.00;2.30;;;6.40;99.90;;;;;;4964730;28;20440;-86
2022/02/23 04:14:05;;;;;;;9.33;4.17;;;6.40;99.90;;;;;;4970015;28;20496;-87
2022/02/23 04:16:32;;;;;;;6.37;2.10;;;6.50;99.90;;;;;;4970422;28;20507;-87
2022/02/23 04:18:59;;;;;;;6.13;1.70;;;6.50;99.90;;;;;;4979705;28;20452;-87
2022/02/23 04:21:25;;;;;;;4.27;2.00;;;6.50;99.90;;;;;;4965307;28;20461;-87
2022/02/23 04:23:54;;;;;;;5.83;2.30;;;6.60;99.90;;;;;;4984102;28;20453;-87
2022/02/23 04:26:21;;;;;;;6.33;3.20;;;6.60;99.90;;;;;;4978706;28;20475;-88
2022/02/23 04:28:47;;;;;;;6.30;2.30;;;6.60;99.90;;;;;;4967898;28;20448;-87
2022/02/23 04:31:14;;;;;;;11.60;2.70;;;6.70;99.90;;;;;;4983358;28;20456;-87
2022/02/23 04:33:42;;;;;;;6.40;2.50;;;6.70;99.90;;;;;;4976920;28;20480;-87
2022/02/23 04:36:10;;;;;;;6.70;2.97;;;6.70;99.90;;;;;;4957654;28;20451;-87
2022/02/23 04:38:38;;;;;;;7.73;2.30;;;6.70;99.90;;;;;;4973203;28;20447;-87
2022/02/23 04:41:07;;;;;;;4.10;2.20;;;6.80;99.90;;;;;;4972313;28;20447;-87
2022/02/23 04:43:35;;;;;;;6.00;2.47;;;6.80;99.90;;;;;;4969438;28;20471;-87
2022/02/23 04:46:03;;;;;;;5.80;2.90;;;6.80;99.90;;;;;;4967304;28;20449;-86
2022/02/23 04:48:30;;;;;;;5.70;2.30;;;6.80;99.90;;;;;;4988441;23;20852;-87
2022/02/23 04:50:57;;;;;;;5.03;2.33;;;6.80;99.90;;;;;;4957494;29;20437;-87
2022/02/23 04:53:23;;;;;;;8.23;2.20;;;6.70;99.90;;;;;;4960015;28;20484;-87
2022/02/23 04:55:50;;;;;;;7.23;3.33;;;6.60;99.90;;;;;;4958628;28;20465;-87
2022/02/23 04:58:19;;;;;;;7.83;2.60;;;6.50;99.90;;;;;;4962796;28;20449;-89
2022/02/23 05:00:46;;;;;;;6.73;3.83;;;6.40;99.90;;;;;;4966158;28;20456;-89
2022/02/23 05:03:21;;;;;;;4.07;2.50;;;6.40;99.90;;;;;;4969915;29;20447;-89
2022/02/23 05:05:49;;;;;;;8.23;2.63;;;6.30;99.90;;;;;;4962347;28;20438;-87
2022/02/23 05:08:17;;;;;;;9.50;3.47;;;6.30;99.90;;;;;;4949758;28;20470;-89
2022/02/23 05:10:44;;;;;;;13.03;4.53;;;6.30;99.90;;;;;;4940987;29;20465;-87
2022/02/23 05:13:12;;;;;;;8.77;4.57;;;6.40;99.90;;;;;;4938580;29;21057;-87
2022/02/23 05:15:40;;;;;;;9.07;3.90;;;6.40;99.90;;;;;;4936198;29;20456;-88
2022/02/23 05:18:08;;;;;;;11.53;5.33;;;6.30;99.90;;;;;;4952797;28;20466;-87
2022/02/23 05:20:34;;;;;;;15.53;6.27;;;6.30;99.90;;;;;;4953225;28;20442;-88
2022/02/23 05:23:01;;;;;;;15.00;5.90;;;6.20;99.90;;;;;;4938027;29;20454;-87
2022/02/23 05:25:28;;;;;;;10.17;6.20;;;6.10;99.90;;;;;;4939859;29;20453;-88
2022/02/23 05:27:55;;;;;;;9.83;5.60;;;6.10;99.90;;;;;;4940447;29;20462;-86
2022/02/23 05:30:22;;;;;;;18.20;6.47;;;6.10;99.90;;;;;;4963845;28;20478;-86
2022/02/23 05:32:50;;;;;;;13.63;6.53;;;6.00;99.90;;;;;;4948735;28;20528;-85
2022/02/23 05:35:17;;;;;;;12.03;5.60;;;6.00;99.90;;;;;;4952635;28;20481;-87
2022/02/23 05:37:44;;;;;;;16.97;6.47;;;6.00;99.90;;;;;;4948899;28;20515;-87
2022/02/23 05:40:11;;;;;;;14.67;6.10;;;5.90;99.90;;;;;;4924961;29;20450;-88
2022/02/23 05:42:38;;;;;;;12.00;6.07;;;6.00;99.90;;;;;;4937829;29;20457;-88
2022/02/23 05:45:06;;;;;;;12.63;6.97;;;5.90;99.90;;;;;;4944481;29;20543;-88
2022/02/23 05:47:33;;;;;;;15.67;6.73;;;5.90;99.90;;;;;;4943992;28;20508;-89
2022/02/23 05:50:01;;;;;;;15.63;6.97;;;5.80;99.90;;;;;;4960046;29;20450;-88
2022/02/23 05:52:28;;;;;;;11.93;6.67;;;5.80;99.90;;;;;;4944812;29;20982;-88
2022/02/23 05:54:54;;;;;;;9.60;6.00;;;5.80;99.90;;;;;;4946011;29;20503;-88
2022/02/23 05:57:21;;;;;;;12.63;4.80;;;5.80;99.90;;;;;;4954804;28;20833;-89
2022/02/23 05:59:49;;;;;;;12.40;5.37;;;5.80;99.90;;;;;;4959445;29;20464;-89
2022/02/23 06:02:15;;;;;;;11.67;4.90;;;5.80;99.90;;;;;;4974866;28;20441;-88
2022/02/23 06:04:42;;;;;;;7.70;6.03;;;5.80;99.90;;;;;;4955276;28;20449;-88
2022/02/23 06:07:10;;;;;;;8.10;5.57;;;5.70;99.90;;;;;;4938320;29;20474;-88
2022/02/23 06:09:37;;;;;;;14.07;5.33;;;5.70;99.90;;;;;;4938705;29;20541;-88
2022/02/23 06:12:05;;;;;;;15.67;6.47;;;5.70;99.90;;;;;;4946614;29;20457;-88
2022/02/23 06:14:32;;;;;;;13.73;6.47;;;5.80;99.90;;;;;;4945774;28;20491;-87
2022/02/23 06:16:59;;;;;;;11.63;5.03;;;5.90;99.90;;;;;;4959463;29;20478;-89
2022/02/23 06:19:26;;;;;;;7.40;4.90;;;5.90;99.90;;;;;;4953292;29;20460;-88
2022/02/23 06:21:53;;;;;;;8.73;5.27;;;6.00;99.90;;;;;;4957900;28;20460;-86
2022/02/23 06:24:22;;;;;;;10.33;4.97;;;6.00;99.90;;;;;;4961184;29;20459;-79
2022/02/23 06:26:49;;;;;;;6.77;4.67;;;6.10;99.90;;;;;;4961833;29;20472;-79
2022/02/23 06:29:16;;;;;;;14.97;6.70;;;6.10;99.90;;;;;;4947778;28;20449;-79
2022/02/23 06:31:44;;;;;;;12.70;5.67;;;6.20;99.90;;;;;;4942683;29;20445;-79
2022/02/23 06:34:12;;;;;;;11.47;6.80;;;6.20;99.90;;;;;;4963882;29;20484;-80
2022/02/23 06:36:39;;;;;;;12.63;5.67;;;6.20;99.90;;;;;;4966096;28;20476;-79
2022/02/23 06:39:06;;;;;;;14.60;6.80;;;6.20;99.90;;;;;;4963923;28;20465;-78
2022/02/23 06:41:34;;;;;;;9.67;5.57;;;6.20;99.90;;;;;;4964329;29;20452;-78
2022/02/23 06:44:01;;;;;;;15.63;7.00;;;6.20;99.90;;;;;;4955879;28;20482;-79
2022/02/23 06:46:28;;;;;;;9.60;5.97;;;6.20;99.90;;;;;;4964952;28;20872;-79
2022/02/23 06:48:54;;;;;;;12.23;6.83;;;6.10;99.90;;;;;;4947526;28;20536;-78
2022/02/23 06:51:21;;;;;;;10.10;5.70;;;6.10;99.90;;;;;;4948530;29;20464;-87
2022/02/23 06:53:49;;;;;;;8.07;5.10;;;6.10;99.90;;;;;;4954540;29;20458;-88
2022/02/23 06:56:17;;;;;;;9.40;6.00;;;6.10;99.90;;;;;;4945763;29;20449;-86
2022/02/23 06:58:46;;;;;;;13.60;6.30;;;6.10;99.90;;;;;;4947414;28;20461;-86
2022/02/23 07:01:16;;;;;;;10.90;6.57;;;6.00;99.90;;;;;;4954274;29;20477;-86
2022/02/23 07:03:44;;;;;;;12.07;5.70;;;6.00;99.90;;;;;;4957891;29;20448;-84
2022/02/23 07:06:10;;;;;;;8.83;5.77;;;6.00;99.90;;;;;;4950371;29;20459;-85
2022/02/23 07:08:38;;;;;;;15.90;6.33;;;6.00;99.90;;;;;;4946184;28;20472;-85
2022/02/23 07:11:05;;;;;;;7.43;4.33;;;6.00;99.90;;;;;;4954836;29;20446;-84
2022/02/23 07:13:32;;;;;;;9.50;5.40;;;6.10;99.90;;;;;;4963155;29;20462;-85
2022/02/23 07:16:00;;;;;;;8.33;4.83;;;6.10;99.90;;;;;;4966630;29;20549;-85
2022/02/23 07:18:28;;;;;;;9.40;4.20;;;6.20;99.90;;;;;;4946821;28;20473;-85
2022/02/23 07:20:55;;;;;;;10.50;4.20;;;6.20;99.90;;;;;;4949120;29;20463;-85
2022/02/23 07:23:21;;;;;;;11.97;5.73;;;6.20;99.90;;;;;;4959023;28;20476;-86
2022/02/23 07:25:51;;;;;;;12.90;5.90;;;6.10;99.90;;;;;;4966742;28;20545;-86
2022/02/23 07:28:18;;;;;;;13.20;5.77;;;6.20;99.90;;;;;;4968037;28;20834;-84
2022/02/23 07:30:45;;;;;;;8.53;5.83;;;6.30;99.90;;;;;;4961767;28;20467;-86
2022/02/23 07:33:15;;;;;;;13.57;6.60;;;6.30;99.90;;;;;;4948677;29;20883;-86
2022/02/23 07:35:42;;;;;;;10.80;5.67;;;6.30;99.90;;;;;;4946654;29;20478;-86
2022/02/23 07:38:09;;;;;;;11.60;6.50;;;6.30;99.90;;;;;;4949433;28;20477;-85
2022/02/23 07:40:36;;;;;;;13.90;7.47;;;6.40;99.90;;;;;;4959823;28;20425;-85
2022/02/23 07:43:04;;;;;;;11.17;6.20;;;6.50;99.90;;;;;;4956051;28;20492;-87
2022/02/23 07:45:32;;;;;;;10.10;5.87;;;6.50;99.90;;;;;;4944530;29;20463;-85
2022/02/23 07:47:58;;;;;;;8.67;5.37;;;6.60;99.90;;;;;;4947149;28;20487;-87
2022/02/23 07:50:28;;;;;;;7.27;4.10;;;6.70;99.90;;;;;;4948471;29;20461;-87
2022/02/23 07:52:55;;;;;;;7.80;4.67;;;6.70;99.90;;;;;;4947856;29;20464;-86
2022/02/23 07:55:22;;;;;;;9.47;4.60;;;6.70;99.90;;;;;;4947174;29;20476;-86
2022/02/23 07:57:49;;;;;;;10.40;4.60;;;6.80;99.90;;;;;;4949137;28;20473;-86
2022/02/23 08:00:18;;;;;;;6.47;4.80;;;6.80;99.90;;;;;;4947202;29;20449;-86
2022/02/23 08:02:45;;;;;;;7.63;5.03;;;6.90;99.90;;;;;;4945622;29;20442;-85
2022/02/23 08:05:12;;;;;;;8.27;4.50;;;7.00;99.90;;;;;;4947011;29;20456;-86
2022/02/23 08:07:40;;;;;;;17.73;6.30;;;7.10;99.90;;;;;;4949902;29;20470;-85
2022/02/23 08:10:07;;;;;;;7.37;4.00;;;7.20;99.90;;;;;;4945457;29;20445;-86
2022/02/23 08:12:34;;;;;;;12.37;4.67;;;7.20;99.90;;;;;;4948951;29;20450;-86
2022/02/23 08:19:30;;;;;;;9.97;5.00;;;7.30;99.90;;;;;;4946834;29;20491;-86
2022/02/23 08:20:33;;;;;;;10.90;5.93;;;7.40;99.90;;;;;;4952607;29;20432;-86
2022/02/23 08:23:01;;;;;;;16.23;5.20;;;7.60;99.90;;;;;;4950684;29;20512;-86
2022/02/23 08:25:28;;;;;;;9.40;4.77;;;7.70;99.90;;;;;;4959367;28;20449;-84
2022/02/23 08:27:55;;;;;;;9.53;4.30;;;7.80;99.90;;;;;;4970321;28;20460;-85
2022/02/23 08:30:22;;;;;;;5.93;4.30;;;8.40;99.90;;;;;;4958460;28;20527;-85
2022/02/23 08:32:49;;;;;;;8.10;3.17;;;9.90;99.90;;;;;;4951600;29;20481;-84
2022/02/23 08:35:16;;;;;;;4.70;3.23;;;11.40;99.90;;;;;;4951383;29;20484;-84
2022/02/23 08:37:44;;;;;;;8.30;3.60;;;12.10;99.40;;;;;;4948367;29;20874;-86
2022/02/23 08:40:12;;;;;;;6.13;3.67;;;13.30;98.00;;;;;;4974039;29;20469;-87
2022/02/23 08:42:39;;;;;;;7.33;3.40;;;14.10;94.70;;;;;;4959707;29;20434;-87
2022/02/23 08:45:06;;;;;;;6.20;3.33;;;14.40;93.70;;;;;;4964944;29;20456;-85
2022/02/23 08:47:33;;;;;;;10.27;3.57;;;14.70;92.60;;;;;;4959886;29;20460;-85
2022/02/23 08:50:00;;;;;;;8.50;3.90;;;14.80;91.90;;;;;;4966618;28;20458;-84
2022/02/23 08:52:27;;;;;;;6.63;3.70;;;14.60;91.70;;;;;;4962595;29;20531;-86
2022/02/23 08:54:53;;;;;;;5.90;4.53;;;14.70;91.60;;;;;;4956749;29;20484;-86
2022/02/23 08:57:22;;;;;;;6.73;3.53;;;14.60;91.10;;;;;;4957390;28;20494;-86
2022/02/23 08:59:48;;;;;;;9.63;4.63;;;14.50;90.60;;;;;;4950865;29;20447;-86
2022/02/23 09:02:15;;;;;;;14.90;5.80;;;14.10;91.10;;;;;;4950018;29;20443;-86
2022/02/23 09:04:43;;;;;;;8.57;4.20;;;14.20;91.80;;;;;;4949351;28;20461;-85
2022/02/23 09:07:11;;;;;;;11.40;5.27;;;14.10;91.40;;;;;;4949121;29;20481;-85
2022/02/23 09:09:38;;;;;;;4.67;3.70;;;14.10;91.80;;;;;;4956093;29;20451;-84
2022/02/23 09:12:06;;;;;;;6.10;3.83;;;13.90;91.50;;;;;;4957521;29;20447;-86
2022/02/23 09:14:34;;;;;;;7.87;3.50;;;14.30;91.90;;;;;;4953173;29;20484;-87
2022/02/23 09:17:01;;;;;;;9.27;4.10;;;14.60;91.10;;;;;;4951376;28;20447;-85
2022/02/23 09:19:28;;;;;;;9.37;4.40;;;14.50;90.70;;;;;;4951057;29;20472;-86
2022/02/23 09:21:55;;;;;;;10.50;4.23;;;14.20;90.80;;;;;;4950994;29;20482;-85
2022/02/23 09:24:23;;;;;;;9.73;5.00;;;13.50;91.60;;;;;;4969203;28;20471;-85
2022/02/23 09:26:50;;;;;;;10.20;4.57;;;13.30;92.80;;;;;;4964116;28;20456;-85
2022/02/23 09:29:17;;;;;;;6.30;4.13;;;12.60;93.30;;;;;;4958425;29;20513;-86
2022/02/23 09:31:45;;;;;;;6.00;5.10;;;12.70;93.80;;;;;;4960170;29;20456;-85
2022/02/23 09:34:13;;;;;;;6.30;3.63;;;12.90;93.50;;;;;;4961752;29;20486;-86
2022/02/23 09:36:41;;;;;;;11.90;4.53;;;12.70;93.40;;;;;;4958459;29;20476;-85
2022/02/23 09:39:09;;;;;;;5.47;3.47;;;12.40;93.60;;;;;;4951081;28;20553;-86
2022/02/23 09:41:38;;;;;;;8.30;4.10;;;11.90;94.60;;;;;;4949902;29;20501;-86
2022/02/23 09:44:05;;;;;;;7.53;3.77;;;11.80;95.10;;;;;;4948910;29;20449;-87
2022/02/23 09:46:32;;;;;;;8.33;5.10;;;11.70;95.00;;;;;;4947825;29;20478;-86
2022/02/23 09:49:00;;;;;;;13.00;4.30;;;11.90;94.70;;;;;;4950616;29;20476;-85
2022/02/23 09:51:27;;;;;;;9.13;3.67;;;11.50;94.50;;;;;;4947777;29;20450;-86
2022/02/23 09:53:55;;;;;;;7.07;2.97;;;11.60;95.00;;;;;;4951170;29;20461;-86
2022/02/23 09:56:24;;;;;;;7.20;2.50;;;12.30;94.30;;;;;;4947596;29;20563;-86
2022/02/23 09:58:53;;;;;;;5.97;1.97;;;12.30;92.50;;;;;;4948049;28;20470;-86
2022/02/23 10:01:23;;;;;;;11.30;2.90;;;12.20;92.00;;;;;;4951199;29;20486;-87
2022/02/23 10:03:51;;;;;;;6.70;3.13;;;12.30;91.80;;;;;;4954473;29;20462;-86
2022/02/23 10:06:21;;;;;;;6.83;2.73;;;12.40;92.20;;;;;;4954453;29;20531;-85
2022/02/23 10:08:48;;;;;;;5.77;3.07;;;12.80;91.80;;;;;;4956440;28;20500;-86
2022/02/23 10:11:18;;;;;;;5.30;2.67;;;13.90;90.90;;;;;;4950040;29;20454;-86
2022/02/23 10:13:50;;;;;;;6.03;2.43;;;14.30;87.10;;;;;;4954135;29;20472;-85
2022/02/23 10:16:17;;;;;;;4.90;2.30;;;13.70;87.10;;;;;;4962756;29;20474;-86
2022/02/23 10:18:44;;;;;;;6.40;2.87;;;13.10;88.00;;;;;;4957409;29;20470;-86
2022/02/23 10:21:11;;;;;;;6.60;3.30;;;13.60;89.60;;;;;;4964335;29;20447;-86
2022/02/23 10:23:39;;;;;;;6.30;2.80;;;14.60;88.40;;;;;;4943503;29;20480;-86
2022/02/23 10:26:10;;;;;;;5.37;2.37;;;14.90;85.00;;;;;;4962234;29;20448;-86
2022/02/23 10:28:37;;;;;;;7.70;2.80;;;15.30;85.00;;;;;;4948420;29;20469;-86
2022/02/23 10:31:07;;;;;;;8.80;4.00;;;15.40;82.80;;;;;;4948324;29;20453;-86
2022/02/23 10:33:36;;;;;;;8.50;3.50;;;17.80;80.00;;;;;;4940062;29;20457;-86
2022/02/23 10:36:05;;;;;;;7.67;2.93;;;19.30;73.10;;;;;;4948232;29;20485;-86
2022/02/23 10:38:34;;;;;;;6.80;2.50;;;20.80;68.80;;;;;;4953989;28;20490;-86
2022/02/23 10:41:04;;;;;;;7.40;2.80;;;21.20;64.30;;;;;;4954041;29;20859;-86
2022/02/23 10:43:34;;;;;;;6.67;2.87;;;22.60;63.00;;;;;;4955404;29;20473;-87
2022/02/23 10:46:04;;;;;;;7.73;3.40;;;24.40;57.60;;;;;;4947680;28;20463;-86
2022/02/23 10:48:32;;;;;;;6.07;2.40;;;25.80;54.00;;;;;;4943252;29;20823;-87
2022/02/23 10:50:59;;;;;;;10.43;2.80;;;26.70;50.70;;;;;;4959434;28;20455;-86
2022/02/23 10:53:27;;;;;;;7.03;2.97;;;24.20;50.40;;;;;;4956328;28;20449;-88
2022/02/23 10:55:54;;;;;;;7.30;2.80;;;21.60;54.20;;;;;;4968509;28;20484;-87
2022/02/23 10:58:24;;;;;;;6.37;2.70;;;20.80;56.40;;;;;;4961901;28;20468;-87
2022/02/23 11:00:54;;;;;;;4.80;2.40;;;19.40;58.90;;;;;;4944996;29;20467;-86
2022/02/23 11:03:22;;;;;;;7.27;2.80;;;19.10;59.10;;;;;;4956409;28;20461;-86
2022/02/23 11:05:50;;;;;;;8.13;3.20;;;19.10;63.40;;;;;;4958716;28;20463;-86
2022/02/23 11:08:17;;;;;;;8.23;3.03;;;20.60;59.00;;;;;;4954374;28;20496;-86
2022/02/23 11:10:45;;;;;;;8.10;2.87;;;21.70;58.20;;;;;;4958180;28;20449;-87
2022/02/23 11:13:15;;;;;;;5.73;3.37;;;23.80;55.70;;;;;;4957812;29;20454;-87
2022/02/23 11:15:45;;;;;;;6.47;3.20;;;25.80;52.20;;;;;;4955478;28;20485;-87
2022/02/23 11:18:15;;;;;;;7.43;2.93;;;26.80;49.90;;;;;;4946930;28;20477;-87
2022/02/23 11:20:43;;;;;;;9.50;3.63;;;26.60;47.30;;;;;;4942741;29;20455;-87
2022/02/23 11:23:16;;;;;;;7.17;3.43;;;24.80;48.90;;;;;;4958989;28;20444;-87
2022/02/23 11:25:45;;;;;;;6.10;3.23;;;22.80;50.80;;;;;;4946316;29;20455;-88
2022/02/23 11:28:20;;;;;;;5.90;2.37;;;21.90;53.50;;;;;;4940297;29;20473;-86
2022/02/23 11:30:48;;;;;;;9.53;2.80;;;21.00;54.00;;;;;;4944660;29;20966;-87
2022/02/23 11:33:15;;;;;;;8.33;2.80;;;18.30;56.90;;;;;;4959492;28;20460;-87
2022/02/23 11:35:44;;;;;;;9.27;3.10;;;18.00;59.50;;;;;;4948012;28;20479;-86
2022/02/23 11:38:16;;;;;;;9.07;3.47;;;18.20;59.40;;;;;;4944530;28;20524;-86
2022/02/23 11:40:49;;;;;;;7.03;3.07;;;17.30;61.00;;;;;;4932750;29;20455;-88
2022/02/23 11:43:29;;;;;;;6.50;3.00;;;17.50;62.90;;;;;;4955092;29;20527;-86
2022/02/23 11:46:00;;;;;;;6.87;3.40;;;17.70;61.70;;;;;;4952216;29;20976;-87
2022/02/23 11:48:45;;;;;;;5.10;2.50;;;17.00;61.90;;;;;;4960156;28;20489;-86
2022/02/23 11:51:24;;;;;;;5.80;2.47;;;16.10;62.70;;;;;;4943813;29;20450;-86
2022/02/23 11:53:51;;;;;;;7.80;2.87;;;16.20;65.70;;;;;;4942144;29;20461;-86
2022/02/23 11:56:20;;;;;;;10.57;3.50;;;18.20;63.20;;;;;;4958575;29;21030;-87
2022/02/23 11:58:48;;;;;;;6.03;3.00;;;19.00;59.30;;;;;;4943243;29;20996;-87
2022/02/23 12:01:17;;;;;;;5.00;3.03;;;20.20;58.50;;;;;;4950027;29;20447;-87
2022/02/23 12:04:13;;;;;;;5.63;2.60;;;21.70;57.40;;;;;;4935424;29;20459;-86
2022/02/23 12:07:09;;;;;;;7.57;2.30;;;22.50;53.80;;;;;;4958913;29;20464;-88
2022/02/23 12:10:08;;;;;;;5.97;2.37;;;23.00;52.10;;;;;;4961771;29;20595;-87
2022/02/23 12:12:36;;;;;;;4.10;2.90;;;24.00;50.20;;;;;;4941140;29;20468;-87
2022/02/23 12:15:06;;;;;;;7.10;2.70;;;22.40;50.60;;;;;;4956642;29;20459;-86
2022/02/23 12:17:50;;;;;;;6.70;1.70;;;20.70;53.70;;;;;;4958712;28;20495;-86
2022/02/23 12:20:49;;;;;;;4.80;2.03;;;21.00;52.20;;;;;;4952918;29;20448;-86
2022/02/23 12:23:38;;;;;;;4.20;2.03;;;20.70;52.00;;;;;;4940850;29;20482;-87
2022/02/23 12:26:21;;;;;;;5.77;2.60;;;20.00;53.50;;;;;;4951735;29;20449;-87
2022/02/23 12:28:49;;;;;;;4.60;2.60;;;18.50;54.60;;;;;;4950337;29;20475;-86
2022/02/23 12:31:22;;;;;;;6.30;2.27;;;16.90;57.40;;;;;;4961508;28;20481;-85
2022/02/23 12:33:50;;;;;;;7.10;2.20;;;16.60;59.60;;;;;;4960757;29;20441;-87
2022/02/23 12:36:28;;;;;;;4.10;1.97;;;17.10;59.90;;;;;;4962535;28;20492;-86
2022/02/23 12:38:57;;;;;;;5.20;1.80;;;20.20;58.30;;;;;;4961896;28;20484;-86
2022/02/23 12:41:26;;;;;;;3.80;1.90;;;22.30;53.60;;;;;;4969020;28;20457;-87
2022/02/23 12:44:12;;;;;;;5.60;2.17;;;23.40;52.20;;;;;;4960274;28;21025;-87
2022/02/23 12:46:41;;;;;;;6.60;2.63;;;21.10;51.60;;;;;;4962297;29;20439;-87
2022/02/23 12:49:08;;;;;;;8.27;2.83;;;20.00;53.80;;;;;;4971144;28;20466;-87
2022/02/23 12:51:38;;;;;;;4.97;2.43;;;19.30;55.30;;;;;;4970507;28;20446;-87
2022/02/23 12:54:08;;;;;;;4.87;2.33;;;17.80;56.40;;;;;;4962104;28;21007;-87
2022/02/23 12:56:38;;;;;;;4.83;2.67;;;17.30;59.30;;;;;;4968083;29;20490;-87
2022/02/23 12:59:06;;;;;;;6.40;2.43;;;18.60;58.20;;;;;;4967743;28;20470;-87